createdAt,value
2023-05-03T00:00:27.515Z,3.40
2023-05-03T00:02:57.189Z,3.20
2023-05-03T00:05:27.902Z,3.57
2023-05-03T00:07:56.875Z,3.30
2023-05-03T00:10:24.971Z,3.70
2023-05-03T00:12:52.745Z,4.13
2023-05-03T00:15:21.849Z,3.97
2023-05-03T00:17:49.631Z,4.17
2023-05-03T00:20:19.196Z,4.10
2023-05-03T00:22:47.135Z,4.17
2023-05-03T00:25:15.138Z,5.20
2023-05-03T00:27:42.886Z,4.83
2023-05-03T00:30:11.722Z,4.63
2023-05-03T00:32:40.817Z,4.83
2023-05-03T00:35:09.295Z,5.57
2023-05-03T00:37:38.196Z,5.77
2023-05-03T00:40:07.289Z,5.63
2023-05-03T00:42:36.900Z,6.10
2023-05-03T00:45:06.035Z,5.90
2023-05-03T00:47:34.629Z,5.90
2023-05-03T00:50:04.788Z,5.47
2023-05-03T00:52:32.974Z,5.60
2023-05-03T00:55:01.435Z,5.80
2023-05-03T00:57:30.604Z,4.70
2023-05-03T00:59:58.921Z,5.77
2023-05-03T01:02:27.995Z,5.67
2023-05-03T01:04:56.578Z,5.87
2023-05-03T01:07:36.486Z,5.43
2023-05-03T01:10:16.338Z,5.43
2023-05-03T01:12:54.235Z,5.53
2023-05-03T01:15:35.432Z,5.90
2023-05-03T01:18:08.840Z,5.47
2023-05-03T01:20:38.415Z,5.47
2023-05-03T01:23:31.348Z,5.90
2023-05-03T01:26:00.993Z,5.30
2023-05-03T01:28:28.722Z,6.23
2023-05-03T01:30:58.546Z,5.73
2023-05-03T01:33:34.435Z,4.50
2023-05-03T01:36:13.969Z,4.40
2023-05-03T01:38:42.055Z,4.40
2023-05-03T01:41:13.717Z,4.03
2023-05-03T01:43:41.819Z,4.40
2023-05-03T01:46:09.710Z,4.50
2023-05-03T01:48:37.508Z,5.40
2023-05-03T01:51:05.774Z,5.07
2023-05-03T01:53:33.539Z,5.27
2023-05-03T01:56:01.288Z,5.40
2023-05-03T01:58:30.376Z,5.47
2023-05-03T02:00:58.314Z,5.23
2023-05-03T02:03:26.127Z,5.30
2023-05-03T02:05:53.940Z,4.90
2023-05-03T02:08:21.679Z,5.67
2023-05-03T02:10:49.441Z,5.23
2023-05-03T02:13:17.408Z,5.60
2023-05-03T02:15:46.484Z,5.40
2023-05-03T02:18:14.291Z,5.27
2023-05-03T02:20:46.153Z,5.97
2023-05-03T02:23:14.510Z,5.37
2023-05-03T02:25:42.815Z,6.00
2023-05-03T02:28:10.650Z,5.50
2023-05-03T02:30:38.443Z,5.80
2023-05-03T02:33:07.594Z,6.10
2023-05-03T02:35:35.735Z,5.77
2023-05-03T02:38:03.645Z,5.37
2023-05-03T02:40:31.420Z,6.43
2023-05-03T02:42:59.219Z,5.93
2023-05-03T02:45:27.101Z,5.70
2023-05-03T02:47:54.908Z,5.93
2023-05-03T02:50:24.107Z,5.63
2023-05-03T02:52:51.855Z,5.43
2023-05-03T02:55:19.734Z,5.80
2023-05-03T02:57:47.506Z,5.40
2023-05-03T03:00:16.638Z,6.10
2023-05-03T03:02:44.507Z,5.13
2023-05-03T03:05:12.367Z,5.27
2023-05-03T03:07:41.533Z,5.63
2023-05-03T03:10:10.237Z,5.70
2023-05-03T03:12:38.438Z,6.10
2023-05-03T03:15:07.572Z,6.03
2023-05-03T03:17:38.790Z,6.87
2023-05-03T03:20:08.756Z,6.43
2023-05-03T03:22:36.518Z,6.23
2023-05-03T03:25:06.497Z,6.70
2023-05-03T03:27:34.308Z,6.23
2023-05-03T03:30:02.260Z,5.83
2023-05-03T03:32:30.169Z,5.57
2023-05-03T03:34:57.896Z,5.60
2023-05-03T03:37:25.997Z,5.47
2023-05-03T03:39:53.914Z,5.87
2023-05-03T03:42:24.186Z,5.80
2023-05-03T03:44:52.037Z,5.70
2023-05-03T03:47:20.054Z,5.53
2023-05-03T03:49:47.960Z,6.07
2023-05-03T03:52:15.743Z,6.60
2023-05-03T03:54:43.495Z,6.60
2023-05-03T03:57:11.278Z,5.90
2023-05-03T03:59:40.912Z,5.97
2023-05-03T04:02:08.741Z,6.10
2023-05-03T04:04:36.652Z,6.10
2023-05-03T04:07:04.614Z,6.53
2023-05-03T04:09:32.405Z,5.47
2023-05-03T04:12:00.621Z,5.70
2023-05-03T04:14:28.366Z,6.00
2023-05-03T04:16:57.502Z,6.30
2023-05-03T04:19:26.275Z,6.33
2023-05-03T04:21:54.102Z,5.90
2023-05-03T04:24:21.961Z,7.10
2023-05-03T04:26:51.189Z,6.63
2023-05-03T04:29:19.885Z,6.30
2023-05-03T04:31:47.670Z,6.73
2023-05-03T04:34:16.833Z,5.73
2023-05-03T04:36:45.533Z,6.00
2023-05-03T04:39:13.383Z,6.10
2023-05-03T04:41:41.951Z,6.00
2023-05-03T04:44:09.725Z,5.97
2023-05-03T04:46:37.596Z,7.30
2023-05-03T04:49:05.338Z,7.93
2023-05-03T04:51:34.454Z,7.00
2023-05-03T04:54:02.534Z,6.70
2023-05-03T04:56:31.148Z,6.67
2023-05-03T04:58:58.996Z,5.90
2023-05-03T05:01:28.133Z,5.57
2023-05-03T05:03:56.169Z,6.70
2023-05-03T05:06:24.060Z,6.37
2023-05-03T05:08:53.205Z,6.30
2023-05-03T05:11:22.160Z,6.47
2023-05-03T05:13:49.909Z,6.37
2023-05-03T05:16:17.765Z,6.30
2023-05-03T05:18:45.592Z,6.63
2023-05-03T05:21:16.274Z,6.10
2023-05-03T05:23:44.024Z,5.77
2023-05-03T05:26:13.570Z,6.30
2023-05-03T05:28:41.399Z,5.97
2023-05-03T05:31:09.235Z,7.03
2023-05-03T05:33:37.030Z,6.07
2023-05-03T05:36:06.061Z,6.03
2023-05-03T05:38:33.838Z,4.90
2023-05-03T05:41:01.664Z,4.93
2023-05-03T05:43:30.763Z,5.27
2023-05-03T05:45:58.620Z,4.97
2023-05-03T05:48:26.462Z,4.43
2023-05-03T05:50:54.262Z,5.40
2023-05-03T05:53:21.997Z,5.67
2023-05-03T05:55:49.734Z,4.93
2023-05-03T05:58:17.646Z,6.87
2023-05-03T06:00:49.128Z,5.83
2023-05-03T06:03:17.067Z,6.23
2023-05-03T06:05:44.890Z,5.63
2023-05-03T06:08:12.732Z,6.67
2023-05-03T06:10:40.806Z,5.83
2023-05-03T06:13:08.611Z,5.97
2023-05-03T06:15:36.388Z,6.97
2023-05-03T06:18:05.833Z,6.20
2023-05-03T06:20:36.707Z,6.20
2023-05-03T06:23:04.461Z,6.07
2023-05-03T06:25:32.223Z,5.70
2023-05-03T06:27:59.971Z,5.63
2023-05-03T06:30:28.581Z,6.60
2023-05-03T06:32:56.521Z,5.03
2023-05-03T06:35:26.448Z,6.00
2023-05-03T06:37:54.185Z,5.93
2023-05-03T06:40:24.657Z,5.70
2023-05-03T06:42:52.443Z,5.07
2023-05-03T06:45:20.459Z,5.20
2023-05-03T06:47:50.022Z,5.57
2023-05-03T06:50:19.983Z,5.20
2023-05-03T06:52:49.143Z,5.60
2023-05-03T06:55:17.107Z,4.93
2023-05-03T06:57:47.466Z,4.90
2023-05-03T07:00:16.135Z,5.00
2023-05-03T07:02:44.251Z,4.80
2023-05-03T07:05:12.381Z,5.07
2023-05-03T07:07:40.178Z,5.10
2023-05-03T07:10:09.744Z,4.17
2023-05-03T07:12:37.516Z,5.97
2023-05-03T07:15:05.653Z,5.70
2023-05-03T07:17:33.466Z,5.00
2023-05-03T07:20:01.678Z,4.30
2023-05-03T07:22:29.626Z,4.43
2023-05-03T07:24:59.460Z,4.27
2023-05-03T07:27:28.701Z,3.60
2023-05-03T07:29:56.488Z,4.50
2023-05-03T07:32:24.333Z,4.17
2023-05-03T07:34:52.130Z,5.03
2023-05-03T07:37:19.883Z,5.67
2023-05-03T07:39:47.808Z,5.10
2023-05-03T07:42:15.611Z,5.30
2023-05-03T07:44:44.674Z,4.37
2023-05-03T07:47:12.509Z,5.17
2023-05-03T07:49:40.424Z,4.43
2023-05-03T07:52:08.217Z,4.77
2023-05-03T07:54:35.995Z,4.43
2023-05-03T07:57:04.216Z,4.33
2023-05-03T07:59:31.965Z,5.20
2023-05-03T08:02:01.941Z,4.13
2023-05-03T08:04:30.183Z,4.20
2023-05-03T08:07:00.920Z,4.87
2023-05-03T08:09:29.151Z,4.87
2023-05-03T08:11:57.357Z,4.10
2023-05-03T08:14:25.232Z,4.70
2023-05-03T08:16:52.996Z,4.20
2023-05-03T08:19:22.069Z,4.20
2023-05-03T08:21:50.187Z,4.77
2023-05-03T08:24:17.913Z,3.90
2023-05-03T08:26:47.631Z,3.63
2023-05-03T08:29:15.464Z,4.20
2023-05-03T08:31:43.271Z,4.07
2023-05-03T08:34:11.695Z,3.87
2023-05-03T08:36:40.793Z,3.97
2023-05-03T08:39:10.218Z,3.87
2023-05-03T08:41:40.370Z,3.67
2023-05-03T08:44:09.396Z,3.63
2023-05-03T08:46:38.272Z,3.87
2023-05-03T08:49:07.518Z,4.00
2023-05-03T08:51:35.900Z,4.17
2023-05-03T08:54:05.434Z,4.40
2023-05-03T08:56:40.275Z,3.90
2023-05-03T08:59:08.942Z,4.07
2023-05-03T09:01:37.913Z,3.73
2023-05-03T09:04:06.641Z,3.50
2023-05-03T09:06:35.647Z,2.80
2023-05-03T09:09:07.201Z,3.93
2023-05-03T09:11:37.344Z,4.10
2023-05-03T09:14:12.924Z,4.20
2023-05-03T09:16:41.934Z,4.03
2023-05-03T09:19:12.387Z,3.33
2023-05-03T09:21:41.307Z,3.30
2023-05-03T09:24:18.412Z,3.27
2023-05-03T09:26:47.475Z,3.17
2023-05-03T09:29:29.626Z,3.63
2023-05-03T09:32:01.613Z,3.17
2023-05-03T09:34:29.451Z,2.40
2023-05-03T09:36:57.273Z,3.33
2023-05-03T09:39:27.497Z,2.87
2023-05-03T09:41:55.334Z,3.30
2023-05-03T09:44:42.237Z,3.17
2023-05-03T09:47:11.265Z,3.87
2023-05-03T09:49:39.409Z,2.60
2023-05-03T09:52:08.538Z,2.50
2023-05-03T09:54:37.959Z,2.67
2023-05-03T09:57:07.366Z,2.43
2023-05-03T09:59:35.836Z,2.93
2023-05-03T10:02:05.945Z,3.10
2023-05-03T10:04:40.954Z,3.30
2023-05-03T10:07:13.173Z,2.57
2023-05-03T10:09:45.311Z,2.77
2023-05-03T10:12:16.901Z,2.50
2023-05-03T10:14:46.842Z,2.80
2023-05-03T10:17:19.448Z,2.57
2023-05-03T10:19:53.772Z,2.80
2023-05-03T10:22:21.567Z,2.83
2023-05-03T10:25:09.318Z,2.77
2023-05-03T10:27:52.800Z,2.93
2023-05-03T10:30:32.259Z,2.50
2023-05-03T10:33:00.707Z,3.30
2023-05-03T10:35:31.286Z,3.37
2023-05-03T10:37:59.412Z,2.57
2023-05-03T10:40:43.596Z,2.70
2023-05-03T10:43:46.499Z,2.77
2023-05-03T10:46:35.321Z,3.10
2023-05-03T10:49:20.204Z,3.00
2023-05-03T10:51:48.652Z,3.10
2023-05-03T10:54:17.343Z,2.50
2023-05-03T10:56:57.285Z,1.97
2023-05-03T10:59:25.717Z,2.33
2023-05-03T11:01:54.339Z,3.73
2023-05-03T11:04:36.202Z,2.60
2023-05-03T11:07:04.548Z,2.37
2023-05-03T11:09:34.042Z,2.17
2023-05-03T11:12:07.074Z,2.73
2023-05-03T11:14:34.877Z,2.10
2023-05-03T11:17:02.771Z,2.40
2023-05-03T11:19:30.862Z,2.33
2023-05-03T11:21:58.942Z,3.20
2023-05-03T11:24:27.929Z,2.90
2023-05-03T11:26:55.663Z,2.47
2023-05-03T11:29:25.966Z,1.90
2023-05-03T11:31:53.958Z,2.30
2023-05-03T11:34:21.709Z,2.10
2023-05-03T11:36:51.034Z,2.60
2023-05-03T11:39:20.653Z,2.60
2023-05-03T11:42:02.590Z,2.07
2023-05-03T11:44:31.799Z,2.00
2023-05-03T11:47:00.185Z,2.10
2023-05-03T11:49:28.470Z,2.20
2023-05-03T11:51:57.064Z,1.60
2023-05-03T11:54:27.406Z,1.47
2023-05-03T11:56:57.649Z,1.90
2023-05-03T11:59:37.870Z,2.10
2023-05-03T12:02:07.534Z,2.03
2023-05-03T12:04:36.258Z,1.63
2023-05-03T12:07:05.324Z,1.80
2023-05-03T12:09:33.768Z,1.80
2023-05-03T12:12:03.308Z,2.00
2023-05-03T12:14:59.841Z,2.03
2023-05-03T12:17:39.126Z,1.97
2023-05-03T12:21:04.949Z,1.73
2023-05-03T12:23:09.561Z,2.30
2023-05-03T12:25:40.095Z,2.20
2023-05-03T12:28:19.443Z,1.43
2023-05-03T12:30:52.722Z,1.90
2023-05-03T12:33:22.774Z,1.30
2023-05-03T12:35:53.445Z,1.37
2023-05-03T12:38:23.861Z,1.07
2023-05-03T12:40:53.491Z,1.10
2023-05-03T12:43:21.495Z,1.00
2023-05-03T12:46:01.628Z,1.40
2023-05-03T12:48:37.660Z,1.30
2023-05-03T12:53:39.099Z,1.50
2023-05-03T12:56:13.044Z,1.60
2023-05-03T13:04:05.123Z,1.10
2023-05-03T13:06:42.453Z,1.87
2023-05-03T13:09:19.249Z,1.97
2023-05-03T13:11:49.806Z,1.60
2023-05-03T13:14:17.905Z,2.00
2023-05-03T13:16:47.588Z,2.10
2023-05-03T13:19:16.138Z,2.07
2023-05-03T13:21:43.879Z,2.03
2023-05-03T13:24:11.693Z,1.50
2023-05-03T13:26:39.436Z,1.73
2023-05-03T13:29:07.859Z,1.87
2023-05-03T13:31:35.658Z,1.50
2023-05-03T13:34:04.787Z,1.27
2023-05-03T13:36:33.307Z,1.47
2023-05-03T13:39:01.792Z,1.50
2023-05-03T13:41:29.554Z,1.63
2023-05-03T13:43:57.309Z,1.40
2023-05-03T13:46:25.329Z,1.50
2023-05-03T13:48:55.925Z,1.20
2023-05-03T13:51:25.570Z,1.77
2023-05-03T13:53:53.312Z,1.57
2023-05-03T13:56:21.542Z,1.80
2023-05-03T13:58:49.290Z,1.47
2023-05-03T14:01:17.173Z,1.40
2023-05-03T14:03:45.344Z,1.77
2023-05-03T14:06:13.415Z,1.50
2023-05-03T14:08:42.557Z,1.10
2023-05-03T14:11:13.827Z,1.30
2023-05-03T14:13:55.579Z,1.03
2023-05-03T14:18:57.857Z,1.27
2023-05-03T14:21:26.280Z,1.40
2023-05-03T14:23:57.128Z,1.50
2023-05-03T14:26:25.965Z,1.57
2023-05-03T14:28:53.701Z,1.70
2023-05-03T14:31:21.632Z,1.60
2023-05-03T14:33:49.422Z,1.23
2023-05-03T14:36:17.228Z,1.80
2023-05-03T14:38:45.028Z,1.10
2023-05-03T14:41:14.362Z,1.43
2023-05-03T14:43:42.119Z,1.23
2023-05-03T14:46:10.290Z,1.23
2023-05-03T14:48:38.793Z,1.50
2023-05-03T14:51:07.163Z,1.23
2023-05-03T14:53:35.539Z,1.50
2023-05-03T14:56:03.348Z,1.50
2023-05-03T14:58:32.907Z,1.10
2023-05-03T15:01:01.064Z,1.37
2023-05-03T15:03:28.996Z,1.43
2023-05-03T15:05:56.968Z,1.70
2023-05-03T15:08:24.781Z,1.37
2023-05-03T15:10:52.768Z,1.70
2023-05-03T15:13:20.753Z,1.47
2023-05-03T15:15:49.990Z,1.20
2023-05-03T15:18:20.082Z,1.13
2023-05-03T15:20:47.925Z,1.30
2023-05-03T15:23:15.879Z,1.00
2023-05-03T15:25:43.669Z,1.00
2023-05-03T15:28:11.410Z,1.37
2023-05-03T15:30:39.210Z,1.60
2023-05-03T15:33:10.543Z,1.00
2023-05-03T15:35:39.911Z,1.43
2023-05-03T15:38:07.799Z,1.10
2023-05-03T15:40:35.822Z,1.07
2023-05-03T15:43:03.630Z,1.43
2023-05-03T15:45:31.576Z,1.90
2023-05-03T15:47:59.378Z,1.50
2023-05-03T15:50:28.683Z,1.60
2023-05-03T15:52:56.906Z,1.73
2023-05-03T15:55:24.676Z,1.63
2023-05-03T15:57:53.190Z,1.40
2023-05-03T16:00:22.855Z,1.33
2023-05-03T16:02:50.720Z,1.63
2023-05-03T16:05:18.675Z,1.40
2023-05-03T16:07:48.065Z,1.50
2023-05-03T16:10:16.889Z,1.73
2023-05-03T16:12:44.772Z,1.27
2023-05-03T16:15:13.290Z,1.23
2023-05-03T16:17:41.098Z,1.50
2023-05-03T16:20:10.683Z,1.10
2023-05-03T16:22:38.649Z,1.30
2023-05-03T16:25:10.427Z,1.50
2023-05-03T16:27:38.742Z,1.50
2023-05-03T16:30:07.828Z,1.43
2023-05-03T16:32:36.572Z,1.23
2023-05-03T16:35:05.227Z,1.10
2023-05-03T16:37:33.891Z,1.57
2023-05-03T16:40:01.995Z,1.27
2023-05-03T16:42:32.095Z,1.63
2023-05-03T16:44:59.877Z,1.20
2023-05-03T16:47:27.813Z,1.37
2023-05-03T16:49:57.150Z,1.13
2023-05-03T16:52:25.325Z,1.17
2023-05-03T16:54:53.067Z,1.10
2023-05-03T16:57:20.806Z,1.40
2023-05-03T16:59:49.993Z,1.40
2023-05-03T17:02:17.775Z,1.43
2023-05-03T17:04:45.657Z,1.40
2023-05-03T17:07:13.488Z,1.30
2023-05-03T17:09:41.359Z,1.30
2023-05-03T17:12:09.114Z,1.40
2023-05-03T17:14:36.857Z,1.50
2023-05-03T17:17:06.032Z,1.20
2023-05-03T17:19:34.002Z,1.03
2023-05-03T17:22:01.772Z,1.40
2023-05-03T17:24:29.488Z,1.40
2023-05-03T17:26:57.242Z,1.20
2023-05-03T17:29:25.467Z,1.00
2023-05-03T17:31:54.161Z,1.30
2023-05-03T17:34:24.839Z,1.20
2023-05-03T17:36:56.002Z,1.20
2023-05-03T17:39:24.265Z,1.30
2023-05-03T17:41:52.452Z,1.13
2023-05-03T17:44:20.247Z,0.80
2023-05-03T17:46:48.419Z,0.80
2023-05-03T17:49:16.252Z,1.00
2023-05-03T17:51:45.346Z,1.10
2023-05-03T17:54:13.158Z,1.20
2023-05-03T17:56:41.697Z,0.93
2023-05-03T17:59:09.490Z,1.10
2023-05-03T18:01:37.289Z,1.20
2023-05-03T18:04:05.248Z,1.17
2023-05-03T18:06:33.082Z,0.80
2023-05-03T18:09:02.218Z,1.00
2023-05-03T18:11:30.020Z,0.87
2023-05-03T18:13:57.799Z,1.17
2023-05-03T18:16:26.005Z,1.00
2023-05-03T18:18:54.380Z,1.03
2023-05-03T18:21:23.396Z,1.30
2023-05-03T18:23:51.118Z,0.90
2023-05-03T18:26:20.207Z,1.00
2023-05-03T18:28:47.966Z,0.97
2023-05-03T18:31:15.946Z,0.97
2023-05-03T18:33:43.834Z,1.10
2023-05-03T18:36:13.692Z,1.40
2023-05-03T18:38:41.732Z,1.10
2023-05-03T18:41:13.833Z,1.17
2023-05-03T18:43:43.193Z,1.40
2023-05-03T18:46:11.703Z,1.10
2023-05-03T18:48:39.463Z,1.40
2023-05-03T18:51:07.874Z,1.50
2023-05-03T18:53:35.776Z,1.37
2023-05-03T18:56:04.542Z,1.60
2023-05-03T18:58:33.437Z,1.50
2023-05-03T19:01:04.609Z,1.80
2023-05-03T19:03:32.621Z,2.00
2023-05-03T19:06:03.521Z,2.00
2023-05-03T19:08:31.358Z,1.97
2023-05-03T19:11:07.028Z,2.30
2023-05-03T19:13:35.154Z,2.30
2023-05-03T19:16:04.754Z,3.13
2023-05-03T19:18:32.680Z,2.20
2023-05-03T19:21:01.265Z,2.20
2023-05-03T19:23:29.021Z,2.80
2023-05-03T19:25:56.815Z,2.33
2023-05-03T19:28:24.836Z,2.33
2023-05-03T19:30:52.637Z,2.60
2023-05-03T19:33:22.520Z,2.33
2023-05-03T19:35:51.305Z,3.20
2023-05-03T19:38:19.029Z,2.77
2023-05-03T19:40:56.639Z,2.80
2023-05-03T19:43:24.669Z,2.50
2023-05-03T19:45:52.589Z,2.50
2023-05-03T19:48:21.708Z,2.57
2023-05-03T19:50:49.468Z,2.57
2023-05-03T19:53:17.252Z,2.83
2023-05-03T19:55:58.490Z,2.37
2023-05-03T19:58:27.097Z,2.47
2023-05-03T20:00:55.350Z,3.67
2023-05-03T20:03:25.175Z,3.10
2023-05-03T20:05:53.006Z,3.90
2023-05-03T20:08:20.814Z,3.47
2023-05-03T20:10:49.730Z,3.30
2023-05-03T20:13:17.799Z,3.80
2023-05-03T20:15:45.667Z,3.03
2023-05-03T20:18:13.438Z,3.20
2023-05-03T20:20:42.572Z,3.27
2023-05-03T20:23:11.749Z,3.27
2023-05-03T20:25:39.544Z,2.77
2023-05-03T20:28:07.874Z,2.60
2023-05-03T20:30:35.765Z,2.50
2023-05-03T20:33:04.226Z,2.97
2023-05-03T20:35:32.345Z,2.63
2023-05-03T20:38:01.438Z,2.60
2023-05-03T20:40:29.275Z,2.60
2023-05-03T20:42:57.031Z,2.80
2023-05-03T20:45:24.822Z,2.50
2023-05-03T20:47:52.697Z,2.77
2023-05-03T20:50:20.822Z,2.50
2023-05-03T20:52:48.720Z,3.07
2023-05-03T20:55:18.132Z,3.07
2023-05-03T20:57:45.999Z,3.23
2023-05-03T21:00:15.637Z,2.63
2023-05-03T21:02:43.730Z,2.97
2023-05-03T21:05:11.871Z,2.93
2023-05-03T21:07:39.645Z,2.60
2023-05-03T21:10:08.438Z,2.77
2023-05-03T21:12:37.584Z,2.63
2023-05-03T21:15:06.483Z,2.90
2023-05-03T21:17:34.313Z,2.77
2023-05-03T21:20:02.293Z,2.50
2023-05-03T21:22:31.134Z,2.37
2023-05-03T21:24:58.932Z,2.43
2023-05-03T21:27:26.698Z,2.70
2023-05-03T21:29:55.820Z,2.40
2023-05-03T21:32:23.593Z,2.60
2023-05-03T21:34:51.579Z,2.77
2023-05-03T21:37:19.360Z,3.10
2023-05-03T21:40:00.382Z,2.97
2023-05-03T21:42:28.595Z,2.60
2023-05-03T21:44:57.704Z,3.23
2023-05-03T21:47:25.570Z,3.00
2023-05-03T21:49:53.346Z,3.30
2023-05-03T21:52:21.169Z,2.97
2023-05-03T21:54:48.955Z,2.87
2023-05-03T21:57:18.660Z,2.73
2023-05-03T21:59:47.266Z,3.20
2023-05-03T22:02:16.419Z,3.10
2023-05-03T22:04:44.235Z,3.23
2023-05-03T22:07:12.007Z,2.83
2023-05-03T22:09:39.767Z,2.90
2023-05-03T22:12:22.237Z,2.80
2023-05-03T22:14:51.672Z,3.37
2023-05-03T22:17:20.978Z,3.43
2023-05-03T22:19:48.982Z,3.57
2023-05-03T22:22:16.746Z,3.50
2023-05-03T22:24:44.534Z,3.23
2023-05-03T22:27:12.258Z,3.13
2023-05-03T22:29:40.466Z,3.40
2023-05-03T22:32:08.305Z,3.37
2023-05-03T22:34:37.429Z,3.60
2023-05-03T22:37:05.221Z,3.20
2023-05-03T22:39:33.088Z,3.17
2023-05-03T22:42:00.875Z,3.77
2023-05-03T22:44:28.668Z,3.17
2023-05-03T22:46:56.471Z,3.40
2023-05-03T22:49:24.430Z,3.23
2023-05-03T22:51:53.517Z,3.40
2023-05-03T22:54:21.736Z,4.10
2023-05-03T22:56:49.598Z,3.40
2023-05-03T22:59:17.345Z,3.80
2023-05-03T23:01:49.174Z,3.27
2023-05-03T23:04:17.098Z,3.60
2023-05-03T23:06:44.960Z,3.10
2023-05-03T23:09:14.094Z,3.40
2023-05-03T23:11:42.075Z,3.30
2023-05-03T23:14:09.852Z,3.67
2023-05-03T23:16:37.668Z,3.47
2023-05-03T23:19:05.498Z,3.80
2023-05-03T23:21:33.766Z,4.07
2023-05-03T23:24:01.588Z,3.47
2023-05-03T23:26:30.700Z,3.90
2023-05-03T23:28:58.901Z,3.37
2023-05-03T23:31:28.128Z,3.90
2023-05-03T23:33:58.436Z,3.87
2023-05-03T23:36:26.226Z,4.70
2023-05-03T23:38:54.268Z,4.07
2023-05-03T23:41:22.161Z,4.47
2023-05-03T23:43:51.651Z,4.10
2023-05-03T23:46:19.530Z,3.87
2023-05-03T23:48:47.295Z,4.17
2023-05-03T23:51:15.059Z,4.20
2023-05-03T23:53:42.836Z,3.60
2023-05-03T23:56:10.601Z,4.47
2023-05-03T23:58:38.358Z,4.20
